createdAt,value
2019-02-07T00:02:12.916Z,99341.47
2019-02-07T00:04:43.383Z,99337.47
2019-02-07T00:07:13.993Z,99344.60
2019-02-07T00:09:44.234Z,99338.89
2019-02-07T00:12:14.544Z,99336.30
2019-02-07T00:14:44.731Z,99332.39
2019-02-07T00:17:15.049Z,99315.32
2019-02-07T00:19:45.234Z,99319.14
2019-02-07T00:22:15.409Z,99320.06
2019-02-07T00:24:45.599Z,99324.05
2019-02-07T00:27:15.828Z,99317.03
2019-02-07T00:29:46.031Z,99315.02
2019-02-07T00:32:16.258Z,99316.03
2019-02-07T00:34:46.877Z,99319.26
2019-02-07T00:37:17.282Z,99322.23
2019-02-07T00:39:47.497Z,99321.65
2019-02-07T00:42:17.684Z,99312.64
2019-02-07T00:44:51.049Z,99304.82
2019-02-07T00:47:19.774Z,99292.37
2019-02-07T00:49:50.394Z,99280.45
2019-02-07T00:52:20.628Z,99293.09
2019-02-07T00:54:50.929Z,99283.56
2019-02-07T00:57:21.077Z,99275.42
2019-02-07T00:59:51.279Z,99268.59
2019-02-07T01:02:21.447Z,99271.89
2019-02-07T01:04:52.013Z,99270.09
2019-02-07T01:07:22.353Z,99268.51
2019-02-07T01:09:52.647Z,99273.62
2019-02-07T01:12:22.880Z,99256.77
2019-02-07T01:15:01.603Z,99254.19
2019-02-07T01:17:25.560Z,99252.08
2019-02-07T01:19:55.859Z,99242.45
2019-02-07T01:22:26.201Z,99247.67
2019-02-07T01:24:56.407Z,99236.97
2019-02-07T01:27:28.086Z,99232.66
2019-02-07T01:29:58.327Z,99229.73
2019-02-07T01:32:28.499Z,99220.92
2019-02-07T01:34:58.770Z,99215.20
2019-02-07T01:37:28.983Z,99204.88
2019-02-07T01:39:59.313Z,99206.09
2019-02-07T01:42:29.856Z,99200.99
2019-02-07T01:45:00.030Z,99192.58
2019-02-07T01:47:30.223Z,99196.71
2019-02-07T01:50:00.442Z,99189.17
2019-02-07T01:52:30.652Z,99184.77
2019-02-07T01:55:01.866Z,99182.75
2019-02-07T01:57:32.110Z,99177.75
2019-02-07T02:00:02.331Z,99170.70
2019-02-07T02:02:32.531Z,99177.72
2019-02-07T02:05:02.808Z,99167.02
2019-02-07T02:07:33.324Z,99172.64
2019-02-07T02:10:04.787Z,99166.21
2019-02-07T02:12:34.986Z,99156.69
2019-02-07T02:15:06.449Z,99154.61
2019-02-07T02:17:36.890Z,99147.69
2019-02-07T02:20:07.840Z,99146.56
2019-02-07T02:22:38.067Z,99141.41
2019-02-07T02:25:09.052Z,99139.34
2019-02-07T02:27:39.333Z,99136.73
2019-02-07T02:30:15.071Z,99135.43
2019-02-07T02:32:45.314Z,99121.55
2019-02-07T02:35:15.629Z,99113.42
2019-02-07T02:37:45.874Z,99125.16
2019-02-07T02:40:16.115Z,99115.93
2019-02-07T02:42:46.319Z,99111.03
2019-02-07T02:45:17.131Z,99121.38
2019-02-07T02:47:47.470Z,99125.37
2019-02-07T02:50:20.280Z,99118.39
2019-02-07T02:52:50.472Z,99115.79
2019-02-07T02:55:45.426Z,99128.64
2019-02-07T02:58:15.622Z,99114.80
2019-02-07T03:01:22.780Z,99119.61
2019-02-07T03:04:11.906Z,99112.50
2019-02-07T03:07:00.161Z,99108.54
2019-02-07T03:09:45.193Z,99098.11
2019-02-07T03:12:34.341Z,99089.70
2019-02-07T03:15:26.705Z,99088.31
2019-02-07T03:18:21.665Z,99083.52
2019-02-07T03:21:19.856Z,99072.00
2019-02-07T03:24:27.402Z,99060.09
2019-02-07T03:27:14.983Z,99060.91
2019-02-07T03:30:04.187Z,99046.66
2019-02-07T03:33:05.295Z,99040.87
2019-02-07T03:35:52.948Z,99033.91
2019-02-07T03:38:47.713Z,99037.95
2019-02-07T03:41:45.042Z,99024.80
2019-02-07T03:44:46.194Z,99032.80
2019-02-07T03:47:23.180Z,99024.61
2019-02-07T03:50:00.794Z,99027.89
2019-02-07T03:52:49.989Z,99013.25
2019-02-07T03:55:45.754Z,99016.94
2019-02-07T03:58:45.242Z,99006.65
2019-02-07T04:01:46.601Z,99014.14
2019-02-07T04:04:35.774Z,99009.84
2019-02-07T04:07:27.687Z,99009.25
2019-02-07T04:10:16.870Z,98998.25
2019-02-07T04:13:06.190Z,99002.91
2019-02-07T04:16:15.127Z,98995.23
2019-02-07T04:18:59.190Z,98992.00
2019-02-07T04:21:57.491Z,98995.14
2019-02-07T04:24:50.364Z,98988.41
2019-02-07T04:27:38.823Z,98981.18
2019-02-07T04:30:18.453Z,98971.11
2019-02-07T04:33:16.845Z,98972.06
2019-02-07T04:36:04.977Z,98958.32
2019-02-07T04:39:06.433Z,98964.25
2019-02-07T04:42:04.671Z,98959.08
2019-02-07T04:44:52.664Z,98955.44
2019-02-07T04:47:40.848Z,98950.96
2019-02-07T04:50:49.372Z,98952.39
2019-02-07T04:53:37.017Z,98952.30
2019-02-07T04:56:37.814Z,98946.02
2019-02-07T04:59:35.911Z,98947.41
2019-02-07T05:02:31.233Z,98941.11
2019-02-07T05:05:32.225Z,98929.48
2019-02-07T05:08:26.752Z,98926.08
2019-02-07T05:11:16.026Z,98923.88
2019-02-07T05:14:04.068Z,98923.92
2019-02-07T05:17:11.391Z,98926.83
2019-02-07T05:20:02.673Z,98925.34
2019-02-07T05:22:54.942Z,98918.42
2019-02-07T05:25:56.174Z,98914.07
2019-02-07T05:29:03.500Z,98905.84
2019-02-07T05:31:51.091Z,98908.17
2019-02-07T05:34:32.125Z,98907.45
2019-02-07T05:37:21.305Z,98902.13
2019-02-07T05:40:02.659Z,98907.34
2019-02-07T05:42:57.702Z,98905.23
2019-02-07T05:45:45.283Z,98913.30
2019-02-07T05:48:33.599Z,98918.02
2019-02-07T05:51:21.396Z,98919.62
2019-02-07T05:54:16.750Z,98923.53
2019-02-07T05:57:05.930Z,98928.02
2019-02-07T05:59:58.215Z,98925.69
2019-02-07T06:02:47.329Z,98913.27
2019-02-07T06:05:40.597Z,98908.11
2019-02-07T06:08:37.310Z,98915.73
2019-02-07T06:11:43.356Z,98912.74
2019-02-07T06:14:32.482Z,98910.27
2019-02-07T06:17:26.635Z,98906.64
2019-02-07T06:20:07.867Z,98906.56
2019-02-07T06:22:55.508Z,98906.39
2019-02-07T06:25:51.794Z,98902.81
2019-02-07T06:28:43.661Z,98902.18
2019-02-07T06:31:31.569Z,98896.75
2019-02-07T06:34:28.762Z,98891.81
2019-02-07T06:37:05.110Z,98896.25
2019-02-07T06:39:56.831Z,98891.06
2019-02-07T06:42:38.372Z,98902.67
2019-02-07T06:45:23.023Z,98905.95
2019-02-07T06:48:30.094Z,98907.80
2019-02-07T06:51:22.305Z,98909.38
2019-02-07T06:54:20.524Z,98895.63
2019-02-07T06:57:08.288Z,98888.76
2019-02-07T06:59:54.530Z,98891.76
2019-02-07T07:02:32.759Z,98889.68
2019-02-07T07:05:21.934Z,98877.66
2019-02-07T07:08:18.554Z,98877.04
2019-02-07T07:11:10.821Z,98881.58
2019-02-07T07:14:00.007Z,98878.52
2019-02-07T07:16:43.587Z,98859.25
2019-02-07T07:19:38.591Z,98863.84
2019-02-07T07:22:26.567Z,98860.80
2019-02-07T07:25:21.725Z,98857.97
2019-02-07T07:28:13.770Z,98854.31
2019-02-07T07:31:15.102Z,98845.30
2019-02-07T07:34:13.763Z,98830.39
2019-02-07T07:37:01.427Z,98815.33
2019-02-07T07:39:49.257Z,98831.31
2019-02-07T07:42:37.313Z,98823.50
2019-02-07T07:45:42.506Z,98826.63
2019-02-07T07:48:31.619Z,98815.02
2019-02-07T07:51:19.926Z,98822.66
2019-02-07T07:54:07.839Z,98813.23
2019-02-07T07:56:59.932Z,98809.48
2019-02-07T07:59:53.127Z,98808.17
2019-02-07T08:02:40.765Z,98803.68
2019-02-07T08:05:48.506Z,98804.98
2019-02-07T08:08:49.456Z,98802.95
2019-02-07T08:11:44.547Z,98788.30
2019-02-07T08:14:29.048Z,98801.21
2019-02-07T08:17:46.823Z,98798.22
2019-02-07T08:20:28.195Z,98789.80
2019-02-07T08:23:13.303Z,98783.41
2019-02-07T08:26:02.615Z,98778.01
2019-02-07T08:28:54.948Z,98773.70
2019-02-07T08:31:43.903Z,98764.80
2019-02-07T08:34:33.355Z,98753.61
2019-02-07T08:37:21.059Z,98735.27
2019-02-07T08:40:10.346Z,98749.67
2019-02-07T08:42:59.505Z,98755.25
2019-02-07T08:45:43.489Z,98764.09
2019-02-07T08:49:04.860Z,98778.73
2019-02-07T08:52:05.015Z,98784.51
2019-02-07T08:54:52.727Z,98787.16
2019-02-07T08:57:41.537Z,98791.46
2019-02-07T09:00:34.365Z,98779.27
2019-02-07T09:03:21.597Z,98771.47
2019-02-07T09:06:10.786Z,98762.91
2019-02-07T09:08:59.070Z,98750.95
2019-02-07T09:11:53.911Z,98755.33
2019-02-07T09:14:41.877Z,98743.00
2019-02-07T09:17:30.747Z,98727.70
2019-02-07T09:20:22.715Z,98742.00
2019-02-07T09:23:14.943Z,98738.22
2019-02-07T09:26:03.045Z,98731.89
2019-02-07T09:28:57.800Z,98741.68
2019-02-07T09:31:46.976Z,98737.28
2019-02-07T09:34:48.010Z,98740.49
2019-02-07T09:37:35.777Z,98742.00
2019-02-07T09:40:26.437Z,98759.30
2019-02-07T09:43:20.019Z,98736.48
2019-02-07T09:46:07.863Z,98753.38
2019-02-07T09:48:59.784Z,98747.89
2019-02-07T09:51:42.057Z,98753.48
2019-02-07T09:54:34.430Z,98745.36
2019-02-07T09:57:30.160Z,98738.63
2019-02-07T10:00:27.079Z,98742.22
2019-02-07T10:03:28.723Z,98735.17
2019-02-07T10:06:24.005Z,98732.98
2019-02-07T10:09:05.801Z,98730.61
2019-02-07T10:11:54.168Z,98733.44
2019-02-07T10:14:34.729Z,98730.31
2019-02-07T10:17:27.338Z,98728.11
2019-02-07T10:20:15.046Z,98717.89
2019-02-07T10:23:10.076Z,98721.56
2019-02-07T10:26:14.238Z,98711.30
2019-02-07T10:28:56.117Z,98719.56
2019-02-07T10:31:48.300Z,98716.73
2019-02-07T10:34:33.511Z,98717.27
2019-02-07T10:37:22.706Z,98703.91
2019-02-07T10:40:14.735Z,98688.08
2019-02-07T10:43:06.951Z,98691.58
2019-02-07T10:45:55.268Z,98683.95
2019-02-07T10:49:02.753Z,98678.19
2019-02-07T10:51:55.048Z,98683.14
2019-02-07T10:54:43.053Z,98683.20
2019-02-07T10:57:35.462Z,98675.87
2019-02-07T11:00:36.078Z,98670.56
2019-02-07T11:03:14.418Z,98667.91
2019-02-07T11:06:21.512Z,98669.95
2019-02-07T11:09:16.741Z,98666.63
2019-02-07T11:12:03.643Z,98659.11
2019-02-07T11:14:48.892Z,98661.19
2019-02-07T11:17:36.762Z,98661.91
2019-02-07T11:20:31.568Z,98658.98
2019-02-07T11:23:37.189Z,98646.31
2019-02-07T11:26:35.746Z,98644.73
2019-02-07T11:29:23.395Z,98647.99
2019-02-07T11:32:13.634Z,98630.09
2019-02-07T11:35:12.265Z,98633.33
2019-02-07T11:37:59.889Z,98631.78
2019-02-07T11:40:38.092Z,98628.66
2019-02-07T11:43:27.884Z,98624.80
2019-02-07T11:46:19.365Z,98623.58
2019-02-07T11:49:14.419Z,98624.09
2019-02-07T11:52:00.031Z,98620.55
2019-02-07T11:54:52.122Z,98632.53
2019-02-07T11:57:39.853Z,98621.02
2019-02-07T12:00:39.414Z,98616.34
2019-02-07T12:03:29.107Z,98623.39
2019-02-07T12:06:33.377Z,98619.11
2019-02-07T12:09:22.836Z,98622.73
2019-02-07T12:12:05.359Z,98629.83
2019-02-07T12:14:53.287Z,98625.90
2019-02-07T12:17:45.577Z,98624.65
2019-02-07T12:20:31.940Z,98595.17
2019-02-07T12:23:21.419Z,98612.99
2019-02-07T12:26:01.530Z,98611.44
2019-02-07T12:31:56.027Z,98603.96
2019-02-07T12:34:36.260Z,98596.50
2019-02-07T12:37:16.749Z,98597.29
2019-02-07T12:40:13.726Z,98600.97
2019-02-07T12:43:02.955Z,98591.59
2019-02-07T12:46:01.090Z,98603.38
2019-02-07T12:48:54.433Z,98598.98
2019-02-07T12:51:35.644Z,98601.69
2019-02-07T12:54:19.567Z,98594.17
2019-02-07T12:57:27.199Z,98593.06
2019-02-07T13:00:16.526Z,98592.91
2019-02-07T13:03:05.864Z,98574.91
2019-02-07T13:06:00.825Z,98589.19
2019-02-07T13:08:44.617Z,98581.46
2019-02-07T13:11:34.132Z,98586.78
2019-02-07T13:14:27.338Z,98583.66
2019-02-07T13:17:15.017Z,98571.66
2019-02-07T13:19:58.394Z,98576.27
2019-02-07T13:22:52.868Z,98560.39
2019-02-07T13:25:40.758Z,98555.83
2019-02-07T13:28:28.767Z,98559.67
2019-02-07T13:31:16.706Z,98570.95
2019-02-07T13:34:06.071Z,98564.61
2019-02-07T13:36:51.725Z,98555.92
2019-02-07T13:39:37.489Z,98551.40
2019-02-07T13:42:29.768Z,98556.30
2019-02-07T13:45:13.969Z,98549.57
2019-02-07T13:48:07.905Z,98547.80
2019-02-07T13:50:55.415Z,98551.91
2019-02-07T13:53:46.237Z,98555.58
2019-02-07T13:56:40.601Z,98553.64
2019-02-07T13:59:39.022Z,98552.54
2019-02-07T14:02:28.091Z,98550.68
2019-02-07T14:05:15.834Z,98554.86
2019-02-07T14:08:08.029Z,98549.08
2019-02-07T14:11:09.765Z,98556.67
2019-02-07T14:13:57.614Z,98553.84
2019-02-07T14:16:47.637Z,98555.33
2019-02-07T14:19:28.048Z,98550.30
2019-02-07T14:22:20.665Z,98555.03
2019-02-07T14:25:08.403Z,98555.86
2019-02-07T14:27:48.068Z,98546.33
2019-02-07T14:30:38.566Z,98558.19
2019-02-07T14:33:30.664Z,98557.60
2019-02-07T14:36:31.645Z,98556.59
2019-02-07T14:39:19.891Z,98559.38
2019-02-07T14:42:02.848Z,98560.69
2019-02-07T14:44:52.332Z,98560.89
2019-02-07T14:47:22.938Z,98557.88
2019-02-07T14:49:53.255Z,98568.65
2019-02-07T14:52:23.512Z,98570.41
2019-02-07T14:54:53.708Z,98569.95
2019-02-07T14:57:23.938Z,98563.73
2019-02-07T14:59:54.519Z,98574.19
2019-02-07T15:02:24.716Z,98562.17
2019-02-07T15:04:54.963Z,98564.66
2019-02-07T15:07:25.231Z,98577.75
2019-02-07T15:09:56.989Z,98570.06
2019-02-07T15:12:27.302Z,98575.66
2019-02-07T15:14:58.367Z,98571.69
2019-02-07T15:17:28.798Z,98572.23
2019-02-07T15:19:59.732Z,98573.70
2019-02-07T15:22:30.009Z,98568.72
2019-02-07T15:25:00.525Z,98568.97
2019-02-07T15:27:30.741Z,98563.23
2019-02-07T15:30:00.960Z,98562.52
2019-02-07T15:32:31.282Z,98566.76
2019-02-07T15:35:01.470Z,98568.06
2019-02-07T15:37:31.683Z,98570.83
2019-02-07T15:40:02.771Z,98564.05
2019-02-07T15:42:33.380Z,98567.05
2019-02-07T15:45:05.404Z,98569.08
2019-02-07T15:47:35.742Z,98567.70
2019-02-07T15:50:10.381Z,98568.72
2019-02-07T15:52:42.938Z,98572.64
2019-02-07T15:55:20.766Z,98572.09
2019-02-07T15:57:52.297Z,98576.95
2019-02-07T16:00:58.025Z,98571.53
2019-02-07T16:04:05.318Z,98575.16
2019-02-07T16:06:49.618Z,98582.34
2019-02-07T16:09:32.752Z,98587.58
2019-02-07T16:12:12.536Z,98588.84
2019-02-07T16:14:54.710Z,98589.44
2019-02-07T16:17:34.515Z,98590.80
2019-02-07T16:20:22.913Z,98584.00
2019-02-07T16:23:01.797Z,98582.13
2019-02-07T16:25:35.902Z,98593.36
2019-02-07T16:28:10.115Z,98592.35
2019-02-07T16:30:40.472Z,98597.98
2019-02-07T16:33:10.693Z,98593.46
2019-02-07T16:35:40.982Z,98601.59
2019-02-07T16:38:11.299Z,98592.16
2019-02-07T16:40:41.484Z,98592.76
2019-02-07T16:43:11.756Z,98605.47
2019-02-07T16:45:42.644Z,98611.02
2019-02-07T16:48:13.144Z,98613.92
2019-02-07T16:50:44.247Z,98620.51
2019-02-07T16:53:14.474Z,98618.62
2019-02-07T16:55:44.661Z,98622.42
2019-02-07T16:58:14.965Z,98623.44
2019-02-07T17:00:45.300Z,98614.74
2019-02-07T17:03:15.680Z,98622.78
2019-02-07T17:05:45.972Z,98626.59
2019-02-07T17:08:16.336Z,98614.82
2019-02-07T17:10:46.559Z,98618.85
2019-02-07T17:13:16.778Z,98613.12
2019-02-07T17:15:46.959Z,98614.89
2019-02-07T17:18:17.524Z,98610.66
2019-02-07T17:20:48.130Z,98615.59
2019-02-07T17:23:18.354Z,98612.11
2019-02-07T17:25:48.900Z,98606.73
2019-02-07T17:28:19.174Z,98605.98
2019-02-07T17:30:49.412Z,98610.61
2019-02-07T17:33:20.046Z,98621.33
2019-02-07T17:35:50.486Z,98615.30
2019-02-07T17:38:20.889Z,98618.16
2019-02-07T17:40:51.111Z,98613.48
2019-02-07T17:43:21.305Z,98619.32
2019-02-07T17:45:51.544Z,98628.98
2019-02-07T17:48:21.748Z,98618.20
2019-02-07T17:50:51.966Z,98620.92
2019-02-07T17:53:22.276Z,98617.36
2019-02-07T17:55:52.724Z,98629.47
2019-02-07T17:58:22.921Z,98629.22
2019-02-07T18:01:01.430Z,98633.98
2019-02-07T18:03:33.424Z,98635.69
2019-02-07T18:06:03.733Z,98629.00
2019-02-07T18:08:34.228Z,98628.14
2019-02-07T18:11:04.984Z,98624.01
2019-02-07T18:13:35.481Z,98624.06
2019-02-07T18:16:06.111Z,98624.94
2019-02-07T18:18:37.141Z,98632.55
2019-02-07T18:21:08.598Z,98638.01
2019-02-07T18:23:38.886Z,98631.47
2019-02-07T18:26:09.324Z,98642.69
2019-02-07T18:28:39.495Z,98644.55
2019-02-07T18:31:09.824Z,98637.87
2019-02-07T18:33:41.199Z,98646.61
2019-02-07T18:36:11.706Z,98651.20
2019-02-07T18:38:41.902Z,98657.89
2019-02-07T18:41:12.371Z,98657.56
2019-02-07T18:43:42.926Z,98659.59
2019-02-07T18:46:13.144Z,98664.17
2019-02-07T18:48:43.388Z,98667.05
2019-02-07T18:51:13.588Z,98670.72
2019-02-07T18:53:43.798Z,98673.50
2019-02-07T18:56:14.060Z,98678.08
2019-02-07T18:58:44.276Z,98687.84
2019-02-07T19:01:14.485Z,98676.48
2019-02-07T19:03:44.773Z,98688.03
2019-02-07T19:06:14.996Z,98688.73
2019-02-07T19:08:45.312Z,98690.36
2019-02-07T19:11:15.513Z,98681.35
2019-02-07T19:13:45.716Z,98684.42
2019-02-07T19:16:19.737Z,98683.50
2019-02-07T19:18:50.247Z,98685.41
2019-02-07T19:21:20.753Z,98691.61
2019-02-07T19:23:52.576Z,98685.92
2019-02-07T19:26:22.757Z,98697.69
2019-02-07T19:28:53.089Z,98700.70
2019-02-07T19:31:23.437Z,98690.89
2019-02-07T19:33:53.981Z,98692.20
2019-02-07T19:36:24.175Z,98695.93
2019-02-07T19:38:54.426Z,98693.22
2019-02-07T19:41:24.623Z,98697.24
2019-02-07T19:43:54.845Z,98695.50
2019-02-07T19:46:25.469Z,98712.48
2019-02-07T19:48:55.740Z,98712.44
2019-02-07T19:51:25.967Z,98707.46
2019-02-07T19:53:56.167Z,98710.38
2019-02-07T19:56:26.358Z,98719.94
2019-02-07T19:58:56.579Z,98718.97
2019-02-07T20:01:27.002Z,98715.55
2019-02-07T20:03:57.205Z,98726.53
2019-02-07T20:06:27.447Z,98723.64
2019-02-07T20:08:57.640Z,98727.44
2019-02-07T20:11:27.912Z,98738.97
2019-02-07T20:13:58.162Z,98737.02
2019-02-07T20:16:28.382Z,98740.43
2019-02-07T20:18:58.764Z,98762.73
2019-02-07T20:21:29.225Z,98768.41
2019-02-07T20:23:59.791Z,98768.13
2019-02-07T20:26:29.995Z,98778.94
2019-02-07T20:29:00.220Z,98781.58
2019-02-07T20:31:30.712Z,98786.25
2019-02-07T20:34:00.963Z,98785.30
2019-02-07T20:36:31.257Z,98784.91
2019-02-07T20:39:01.735Z,98787.67
2019-02-07T20:41:32.002Z,98799.11
2019-02-07T20:44:02.560Z,98807.13
2019-02-07T20:46:33.166Z,98800.36
2019-02-07T20:49:03.479Z,98802.97
2019-02-07T20:51:47.996Z,98801.22
2019-02-07T20:54:19.514Z,98811.67
2019-02-07T20:56:49.818Z,98804.95
2019-02-07T20:59:21.189Z,98803.32
2019-02-07T21:01:51.393Z,98812.38
2019-02-07T21:04:21.608Z,98820.22
2019-02-07T21:06:51.819Z,98813.32
2019-02-07T21:09:22.048Z,98813.16
2019-02-07T21:11:52.272Z,98822.59
2019-02-07T21:14:22.951Z,98811.98
2019-02-07T21:16:53.432Z,98819.48
2019-02-07T21:19:23.947Z,98824.45
2019-02-07T21:21:54.354Z,98828.40
2019-02-07T21:24:24.629Z,98827.96
2019-02-07T21:26:54.832Z,98827.36
2019-02-07T21:29:25.088Z,98822.13
2019-02-07T21:31:55.238Z,98823.61
2019-02-07T21:34:25.452Z,98820.86
2019-02-07T21:36:55.657Z,98819.86
2019-02-07T21:39:26.127Z,98833.59
2019-02-07T21:41:56.414Z,98839.72
2019-02-07T21:44:26.657Z,98834.09
2019-02-07T21:46:57.484Z,98832.72
2019-02-07T21:49:27.840Z,98836.03
2019-02-07T21:51:58.188Z,98836.13
2019-02-07T21:54:28.378Z,98831.75
2019-02-07T21:56:58.565Z,98833.92
2019-02-07T21:59:29.465Z,98837.94
2019-02-07T22:01:59.689Z,98834.89
2019-02-07T22:04:29.878Z,98840.92
2019-02-07T22:07:01.060Z,98840.51
2019-02-07T22:09:31.309Z,98848.98
2019-02-07T22:12:01.908Z,98845.20
2019-02-07T22:14:32.131Z,98853.66
2019-02-07T22:17:02.321Z,98849.38
2019-02-07T22:19:32.525Z,98851.41
2019-02-07T22:22:02.851Z,98855.39
2019-02-07T22:24:33.167Z,98855.33
2019-02-07T22:27:03.842Z,98859.41
2019-02-07T22:29:34.045Z,98862.58
2019-02-07T22:32:04.300Z,98864.28
2019-02-07T22:34:34.471Z,98868.53
2019-02-07T22:37:04.750Z,98868.38
2019-02-07T22:39:34.970Z,98860.09
2019-02-07T22:42:05.267Z,98864.14
2019-02-07T22:44:35.479Z,98864.13
2019-02-07T22:47:05.710Z,98871.95
2019-02-07T22:49:35.968Z,98874.09
2019-02-07T22:52:06.474Z,98870.21
2019-02-07T22:54:36.835Z,98873.69
2019-02-07T22:57:07.035Z,98869.66
2019-02-07T22:59:37.537Z,98876.91
2019-02-07T23:02:09.083Z,98875.45
2019-02-07T23:04:39.326Z,98885.47
2019-02-07T23:07:09.525Z,98892.23
2019-02-07T23:09:40.202Z,98885.47
2019-02-07T23:12:10.414Z,98886.27
2019-02-07T23:14:40.638Z,98883.87
2019-02-07T23:17:10.868Z,98886.18
2019-02-07T23:19:41.106Z,98889.66
2019-02-07T23:22:11.773Z,98879.42
2019-02-07T23:24:41.995Z,98875.92
2019-02-07T23:27:12.250Z,98883.29
2019-02-07T23:29:42.430Z,98885.14
2019-02-07T23:32:12.654Z,98886.16
2019-02-07T23:34:42.894Z,98892.98
2019-02-07T23:37:13.551Z,98898.59
2019-02-07T23:39:43.723Z,98887.27
2019-02-07T23:42:13.919Z,98909.70
2019-02-07T23:44:44.153Z,98907.59
2019-02-07T23:47:14.363Z,98904.16
2019-02-07T23:49:44.584Z,98905.71
2019-02-07T23:52:16.726Z,98907.07
2019-02-07T23:54:47.133Z,98901.11
2019-02-07T23:57:18.177Z,98896.77
2019-02-07T23:59:48.404Z,98907.58
